createdAt,value
2018-10-17T00:00:30.570Z,74.81
2018-10-17T00:01:30.414Z,74.5
2018-10-17T00:02:30.496Z,75.19
2018-10-17T00:03:30.426Z,75.05
2018-10-17T00:04:30.517Z,75.04
2018-10-17T00:05:30.650Z,74.94
2018-10-17T00:06:30.427Z,74.89
2018-10-17T00:07:30.987Z,75.01
2018-10-17T00:08:30.419Z,74.81
2018-10-17T00:09:30.383Z,74.63
2018-10-17T00:10:30.462Z,75
2018-10-17T00:11:30.442Z,74.92
2018-10-17T00:12:30.421Z,75.36
2018-10-17T00:13:30.482Z,75.17
2018-10-17T00:14:30.383Z,75.08
2018-10-17T00:15:30.391Z,74.56
2018-10-17T00:16:30.363Z,74.55
2018-10-17T00:17:30.435Z,74.3
2018-10-17T00:18:30.359Z,74.63
2018-10-17T00:19:30.361Z,75
2018-10-17T00:20:30.361Z,75.06
2018-10-17T00:21:30.556Z,74.66
2018-10-17T00:23:30.428Z,75.64
2018-10-17T00:24:30.479Z,75.28
2018-10-17T00:25:30.357Z,75.23
2018-10-17T00:26:30.371Z,75.39
2018-10-17T00:27:30.381Z,75.68
2018-10-17T00:28:30.325Z,75.22
2018-10-17T00:29:30.382Z,74.92
2018-10-17T00:30:30.352Z,74.78
2018-10-17T00:31:30.700Z,74.6
2018-10-17T00:32:30.456Z,75.21
2018-10-17T00:33:30.348Z,75.09
2018-10-17T00:34:30.356Z,75.61
2018-10-17T00:35:30.328Z,75.09
2018-10-17T00:36:30.334Z,75.7
2018-10-17T00:37:30.347Z,75.07
2018-10-17T00:38:30.336Z,74.91
2018-10-17T00:39:30.304Z,75.45
2018-10-17T00:40:30.788Z,76.01
2018-10-17T00:41:30.363Z,76.84
2018-10-17T00:42:30.323Z,76.88
2018-10-17T00:43:30.319Z,76.42
2018-10-17T00:45:30.333Z,77.27
2018-10-17T00:46:30.372Z,77.64
2018-10-17T00:47:30.337Z,77.49
2018-10-17T00:48:30.322Z,78.07
2018-10-17T00:49:30.320Z,78.36
2018-10-17T00:50:30.410Z,78.49
2018-10-17T00:51:30.346Z,78.38
2018-10-17T00:52:30.379Z,78.39
2018-10-17T00:53:30.330Z,78.14
2018-10-17T00:54:30.402Z,78.38
2018-10-17T00:55:30.346Z,78.11
2018-10-17T00:56:30.446Z,77.68
2018-10-17T00:57:30.313Z,77.61
2018-10-17T00:58:30.722Z,77.32
2018-10-17T00:59:30.295Z,77.84
2018-10-17T01:00:30.708Z,77.71
2018-10-17T01:01:30.508Z,78.02
2018-10-17T01:02:30.561Z,77.27
2018-10-17T01:03:30.340Z,77.17
2018-10-17T01:04:30.661Z,76.76
2018-10-17T01:05:30.345Z,76.72
2018-10-17T01:06:30.370Z,76.87
2018-10-17T01:07:30.461Z,76.96
2018-10-17T01:08:30.328Z,76.86
2018-10-17T01:09:30.309Z,76.74
2018-10-17T01:10:30.447Z,77.65
2018-10-17T01:11:30.315Z,77.45
2018-10-17T01:12:30.390Z,77.44
2018-10-17T01:13:30.296Z,77.54
2018-10-17T01:14:30.401Z,77.28
2018-10-17T01:15:30.301Z,77.56
2018-10-17T01:16:30.450Z,77.89
2018-10-17T01:17:30.426Z,77.9
2018-10-17T01:18:30.766Z,77.88
2018-10-17T01:19:30.535Z,77.62
2018-10-17T01:20:30.392Z,77.41
2018-10-17T01:21:30.286Z,77.58
2018-10-17T01:22:30.279Z,77.3
2018-10-17T01:23:30.258Z,77.28
2018-10-17T01:24:30.316Z,77.36
2018-10-17T01:25:30.578Z,76.83
2018-10-17T01:26:30.462Z,76.82
2018-10-17T01:27:30.295Z,77.13
2018-10-17T01:28:30.305Z,76.86
2018-10-17T01:29:30.308Z,76.88
2018-10-17T01:30:30.389Z,77.04
2018-10-17T01:31:30.376Z,77.6
2018-10-17T01:32:30.277Z,77.32
2018-10-17T01:33:30.453Z,78.04
2018-10-17T01:34:30.267Z,78.42
2018-10-17T01:35:30.343Z,77.67
2018-10-17T01:36:30.496Z,78.39
2018-10-17T01:37:30.371Z,78.55
2018-10-17T01:38:30.478Z,78.74
2018-10-17T01:39:30.658Z,78.49
2018-10-17T01:40:30.364Z,78.99
2018-10-17T01:41:30.311Z,78.09
2018-10-17T01:42:30.524Z,77.76
2018-10-17T01:43:30.361Z,77.77
2018-10-17T01:44:30.378Z,79.03
2018-10-17T01:45:30.285Z,78.15
2018-10-17T01:46:30.328Z,78.08
2018-10-17T01:47:30.369Z,77.71
2018-10-17T01:48:30.416Z,77.81
2018-10-17T01:49:30.311Z,77.92
2018-10-17T01:50:30.295Z,78.05
2018-10-17T01:51:30.314Z,78.05
2018-10-17T01:52:30.567Z,78.1
2018-10-17T01:53:30.218Z,78.09
2018-10-17T01:54:30.225Z,78.25
2018-10-17T01:55:30.272Z,78.08
2018-10-17T01:56:30.322Z,77.62
2018-10-17T01:57:30.218Z,77.6
2018-10-17T01:58:30.283Z,78.03
2018-10-17T01:59:30.246Z,78.86
2018-10-17T02:00:30.322Z,78.84
2018-10-17T02:01:30.299Z,79.25
2018-10-17T02:02:30.223Z,79.28
2018-10-17T02:03:30.341Z,78.85
2018-10-17T02:04:30.227Z,79.05
2018-10-17T02:05:30.258Z,78.66
2018-10-17T02:06:30.251Z,78.46
2018-10-17T02:07:30.248Z,78.56
2018-10-17T02:08:30.309Z,77.98
2018-10-17T02:09:30.249Z,77.72
2018-10-17T02:10:30.226Z,78.57
2018-10-17T02:11:30.215Z,78.96
2018-10-17T02:12:30.392Z,78.37
2018-10-17T02:14:30.527Z,78.96
2018-10-17T02:15:30.366Z,78.68
2018-10-17T02:16:30.229Z,78.79
2018-10-17T02:17:30.211Z,78.36
2018-10-17T02:18:30.551Z,78.37
2018-10-17T02:19:30.405Z,78.42
2018-10-17T02:20:30.236Z,78.32
2018-10-17T02:21:30.265Z,77.92
2018-10-17T02:22:30.218Z,77.72
2018-10-17T02:23:30.303Z,78.44
2018-10-17T02:24:30.183Z,78.41
2018-10-17T02:25:30.227Z,78.52
2018-10-17T02:26:30.506Z,78.44
2018-10-17T02:27:30.197Z,78.43
2018-10-17T02:28:30.207Z,78.38
2018-10-17T02:29:30.424Z,78.64
2018-10-17T02:30:30.210Z,78.57
2018-10-17T02:31:30.242Z,78.58
2018-10-17T02:32:30.207Z,78.48
2018-10-17T02:33:30.192Z,78.58
2018-10-17T02:34:30.153Z,78.65
2018-10-17T02:35:30.167Z,78.6
2018-10-17T02:36:30.321Z,78.8
2018-10-17T02:37:30.415Z,78.89
2018-10-17T02:38:30.359Z,78.48
2018-10-17T02:39:30.481Z,78.88
2018-10-17T02:40:30.321Z,78.85
2018-10-17T02:41:30.219Z,78.79
2018-10-17T02:42:30.197Z,78.79
2018-10-17T02:43:30.303Z,78.72
2018-10-17T02:44:30.174Z,78.54
2018-10-17T02:45:30.171Z,78.53
2018-10-17T02:46:30.367Z,78.32
2018-10-17T02:47:30.220Z,77.89
2018-10-17T02:48:30.196Z,78.05
2018-10-17T02:49:30.549Z,78.19
2018-10-17T02:50:30.246Z,78.24
2018-10-17T02:51:30.239Z,78.34
2018-10-17T02:52:30.257Z,78.3
2018-10-17T02:53:30.170Z,78.51
2018-10-17T02:54:30.161Z,78.54
2018-10-17T02:55:30.152Z,78.42
2018-10-17T02:56:30.285Z,78.53
2018-10-17T02:57:30.175Z,78.44
2018-10-17T02:58:30.247Z,78.28
2018-10-17T02:59:30.181Z,78.58
2018-10-17T03:00:30.157Z,78.63
2018-10-17T03:01:30.376Z,78.53
2018-10-17T03:02:30.272Z,78.41
2018-10-17T03:03:30.542Z,78.14
2018-10-17T03:04:34.219Z,78.3
2018-10-17T03:05:30.237Z,78.26
2018-10-17T03:06:30.437Z,77.86
2018-10-17T03:07:30.383Z,77.87
2018-10-17T03:08:30.177Z,77.85
2018-10-17T03:09:30.392Z,77.83
2018-10-17T03:10:30.181Z,78.17
2018-10-17T03:11:30.176Z,78.37
2018-10-17T03:12:30.193Z,78.11
2018-10-17T03:13:30.165Z,78.08
2018-10-17T03:14:30.199Z,77.77
2018-10-17T03:15:30.155Z,78.17
2018-10-17T03:16:30.123Z,77.98
2018-10-17T03:17:30.137Z,77.88
2018-10-17T03:18:30.331Z,77.87
2018-10-17T03:19:30.121Z,77.9
2018-10-17T03:20:30.123Z,77.83
2018-10-17T03:21:30.161Z,77.73
2018-10-17T03:22:30.135Z,77.88
2018-10-17T03:23:30.385Z,77.88
2018-10-17T03:24:30.141Z,77.97
2018-10-17T03:25:30.161Z,77.69
2018-10-17T03:26:30.179Z,77.54
2018-10-17T03:27:30.125Z,77.43
2018-10-17T03:28:30.103Z,77.69
2018-10-17T03:29:30.092Z,77.93
2018-10-17T03:30:30.419Z,77.95
2018-10-17T03:31:31.009Z,78.01
2018-10-17T03:32:30.114Z,77.78
2018-10-17T03:33:30.170Z,77.5
2018-10-17T03:34:30.114Z,77.58
2018-10-17T03:35:30.257Z,77.95
2018-10-17T03:36:30.111Z,77.94
2018-10-17T03:37:30.155Z,78.07
2018-10-17T03:38:30.123Z,78.02
2018-10-17T03:39:30.091Z,77.81
2018-10-17T03:40:30.140Z,77.7
2018-10-17T03:41:30.143Z,77.86
2018-10-17T03:42:30.153Z,77.75
2018-10-17T03:43:30.087Z,77.56
2018-10-17T03:44:30.115Z,77.31
2018-10-17T03:45:30.535Z,77.57
2018-10-17T03:46:30.093Z,77.63
2018-10-17T03:47:30.139Z,78.02
2018-10-17T03:48:30.146Z,78.38
2018-10-17T03:49:30.352Z,78.6
2018-10-17T03:50:30.223Z,78.54
2018-10-17T03:51:30.042Z,78.73
2018-10-17T03:52:30.101Z,78.74
2018-10-17T03:53:30.076Z,78.73
2018-10-17T03:54:30.092Z,78.76
2018-10-17T03:55:30.186Z,78.87
2018-10-17T03:56:30.107Z,78.84
2018-10-17T03:57:30.188Z,79.16
2018-10-17T03:58:30.203Z,79.19
2018-10-17T03:59:31.428Z,79.14
2018-10-17T04:00:30.048Z,78.84
2018-10-17T04:01:30.076Z,78.72
2018-10-17T04:02:30.445Z,78.7
2018-10-17T04:03:30.119Z,78.53
2018-10-17T04:04:30.083Z,78.84
2018-10-17T04:05:30.227Z,78.74
2018-10-17T04:06:30.175Z,78.91
2018-10-17T04:07:30.046Z,78.95
2018-10-17T04:08:30.306Z,79.06
2018-10-17T04:09:30.433Z,79.4
2018-10-17T04:10:30.592Z,79.6
2018-10-17T04:11:30.175Z,79.13
2018-10-17T04:12:30.093Z,79.17
2018-10-17T04:13:30.147Z,79.11
2018-10-17T04:14:30.104Z,79.22
2018-10-17T04:15:30.161Z,79.05
2018-10-17T04:16:30.132Z,79.13
2018-10-17T04:17:30.173Z,79.07
2018-10-17T04:18:30.191Z,79.11
2018-10-17T04:19:30.570Z,78.99
2018-10-17T04:20:30.137Z,78.75
2018-10-17T04:21:30.044Z,78.97
2018-10-17T04:22:30.517Z,78.97
2018-10-17T04:23:30.112Z,79.06
2018-10-17T04:24:30.126Z,79.67
2018-10-17T04:25:30.157Z,79.93
2018-10-17T04:26:30.036Z,79.45
2018-10-17T04:27:30.162Z,79.52
2018-10-17T04:28:30.463Z,79.47
2018-10-17T04:29:30.176Z,79.29
2018-10-17T04:30:30.086Z,79.38
2018-10-17T04:31:30.308Z,79.51
2018-10-17T04:32:30.655Z,79.89
2018-10-17T04:33:30.316Z,80.24
2018-10-17T04:34:30.100Z,80
2018-10-17T04:35:30.041Z,80.07
2018-10-17T04:36:30.109Z,80.02
2018-10-17T04:37:30.571Z,79.92
2018-10-17T04:38:30.569Z,79.67
2018-10-17T04:39:30.149Z,79.79
2018-10-17T04:40:30.026Z,80.1
2018-10-17T04:41:30.428Z,80.17
2018-10-17T04:42:30.004Z,79.92
2018-10-17T04:43:30.316Z,79.58
2018-10-17T04:44:30.120Z,79.51
2018-10-17T04:45:30.059Z,80.29
2018-10-17T04:46:30.016Z,80.01
2018-10-17T04:47:30.156Z,80.13
2018-10-17T04:48:30.095Z,79.79
2018-10-17T04:49:30.041Z,80.08
2018-10-17T04:50:30.143Z,79.67
2018-10-17T04:51:30.030Z,80.11
2018-10-17T04:52:30.380Z,80.1
2018-10-17T04:53:30.273Z,79.9
2018-10-17T04:54:30.060Z,79.98
2018-10-17T04:55:30.011Z,79.84
2018-10-17T04:56:29.971Z,79.76
2018-10-17T04:57:30.052Z,79.54
2018-10-17T04:58:30.055Z,79.41
2018-10-17T04:59:30.020Z,79.22
2018-10-17T05:00:30.125Z,79.35
2018-10-17T05:01:30.028Z,79.42
2018-10-17T05:02:29.978Z,79.15
2018-10-17T05:03:29.963Z,79.57
2018-10-17T05:04:30.216Z,79.76
2018-10-17T05:05:30.003Z,79.67
2018-10-17T05:06:29.960Z,79.55
2018-10-17T05:07:30.044Z,79.5
2018-10-17T05:08:30.046Z,79.42
2018-10-17T05:09:29.578Z,79.52
2018-10-17T05:10:30.195Z,79.15
2018-10-17T05:11:30.107Z,79.2
2018-10-17T05:12:30.060Z,78.97
2018-10-17T05:13:30.222Z,78.99
2018-10-17T05:14:30.071Z,78.93
2018-10-17T05:15:30.063Z,78.86
2018-10-17T05:16:30.427Z,78.9
2018-10-17T05:17:30.310Z,78.64
2018-10-17T05:18:30.237Z,78.42
2018-10-17T05:19:30.231Z,78.21
2018-10-17T05:20:30.115Z,78.04
2018-10-17T05:21:30.057Z,78.01
2018-10-17T05:22:30.253Z,77.9
2018-10-17T05:23:29.999Z,77.71
2018-10-17T05:24:30.193Z,77.73
2018-10-17T05:25:29.848Z,77.92
2018-10-17T05:26:30.078Z,77.98
2018-10-17T05:27:29.975Z,78.08
2018-10-17T05:28:30.051Z,78.18
2018-10-17T05:29:30.076Z,78.02
2018-10-17T05:30:30.038Z,78.13
2018-10-17T05:31:30.342Z,78.11
2018-10-17T05:32:30.233Z,78.02
2018-10-17T05:33:30.019Z,78.15
2018-10-17T05:34:30.016Z,78.17
2018-10-17T05:35:30.072Z,78.01
2018-10-17T05:36:29.935Z,77.78
2018-10-17T05:37:30.439Z,77.96
2018-10-17T05:38:30.061Z,77.9
2018-10-17T05:39:29.914Z,77.84
2018-10-17T05:40:30.035Z,77.74
2018-10-17T05:41:29.965Z,77.83
2018-10-17T05:42:30.034Z,78.02
2018-10-17T05:43:29.993Z,77.96
2018-10-17T05:44:30.433Z,78.06
2018-10-17T05:45:30.130Z,78.15
2018-10-17T05:46:30.126Z,78.05
2018-10-17T05:47:30.035Z,78.15
2018-10-17T05:48:30.052Z,78
2018-10-17T05:49:29.933Z,78.04
2018-10-17T05:50:29.817Z,78.08
2018-10-17T05:51:30.050Z,78.19
2018-10-17T05:52:29.974Z,78.21
2018-10-17T05:53:29.998Z,78.05
2018-10-17T05:54:30.085Z,78.04
2018-10-17T05:55:30.174Z,77.96
2018-10-17T05:56:29.794Z,78.04
2018-10-17T05:57:30.028Z,78.1
2018-10-17T05:58:30.098Z,78.16
2018-10-17T05:59:29.933Z,78.04
2018-10-17T06:00:29.996Z,78.14
2018-10-17T06:01:30.358Z,77.98
2018-10-17T06:02:30.747Z,78.09
2018-10-17T06:03:29.941Z,78.23
2018-10-17T06:04:30.305Z,77.98
2018-10-17T06:05:30.260Z,77.88
2018-10-17T06:06:29.859Z,77.84
2018-10-17T06:07:30.014Z,77.99
2018-10-17T06:08:29.929Z,78.16
2018-10-17T06:09:30.181Z,78.25
2018-10-17T06:10:30.007Z,78.86
2018-10-17T06:11:30.067Z,78.48
2018-10-17T06:12:30.249Z,78.27
2018-10-17T06:13:30.166Z,78.63
2018-10-17T06:14:30.328Z,78.42
2018-10-17T06:15:30.020Z,78.76
2018-10-17T06:16:30.157Z,79.08
2018-10-17T06:17:30.662Z,78.95
2018-10-17T06:18:29.998Z,78.63
2018-10-17T06:19:29.889Z,78.85
2018-10-17T06:20:29.890Z,78.86
2018-10-17T06:21:29.905Z,78.7
2018-10-17T06:22:29.994Z,78.52
2018-10-17T06:23:29.875Z,78.7
2018-10-17T06:24:30.276Z,78.89
2018-10-17T06:25:30.306Z,78.9
2018-10-17T06:26:30.355Z,79.14
2018-10-17T06:27:30.010Z,79.03
2018-10-17T06:28:30.294Z,79.19
2018-10-17T06:29:29.888Z,79.19
2018-10-17T06:30:30.064Z,79.42
2018-10-17T06:31:29.901Z,79.63
2018-10-17T06:32:29.857Z,79.43
2018-10-17T06:33:29.873Z,79.4
2018-10-17T06:34:30.111Z,79.54
2018-10-17T06:35:29.848Z,79.14
2018-10-17T06:36:30.162Z,79.52
2018-10-17T06:37:29.903Z,79.4
2018-10-17T06:38:29.857Z,79.46
2018-10-17T06:39:29.862Z,79.46
2018-10-17T06:40:29.872Z,79.55
2018-10-17T06:41:29.934Z,79.09
2018-10-17T06:42:29.874Z,79.59
2018-10-17T06:43:30.364Z,79.48
2018-10-17T06:44:29.869Z,80.07
2018-10-17T06:45:30.124Z,80.23
2018-10-17T06:46:30.007Z,80.35
2018-10-17T06:47:29.939Z,80.56
2018-10-17T06:48:29.996Z,80.5
2018-10-17T06:49:30.248Z,80.56
2018-10-17T06:50:29.864Z,80.74
2018-10-17T06:51:29.865Z,80.25
2018-10-17T06:52:30.181Z,80.41
2018-10-17T06:53:29.941Z,80.32
2018-10-17T06:54:30.856Z,80.72
2018-10-17T06:55:29.815Z,80.47
2018-10-17T06:56:29.874Z,80.61
2018-10-17T06:57:30.223Z,81.05
2018-10-17T06:58:29.866Z,81.05
2018-10-17T06:59:29.839Z,80.54
2018-10-17T07:00:29.857Z,80.7
2018-10-17T07:01:29.981Z,80.86
2018-10-17T07:02:29.854Z,80.71
2018-10-17T07:03:30.145Z,80.77
2018-10-17T07:04:30.046Z,80.5
2018-10-17T07:05:29.832Z,80.75
2018-10-17T07:06:30.069Z,80.54
2018-10-17T07:07:30.131Z,81.42
2018-10-17T07:08:30.291Z,81.02
2018-10-17T07:09:30.096Z,81.36
2018-10-17T07:10:29.820Z,81.09
2018-10-17T07:11:30.095Z,81.79
2018-10-17T07:12:29.804Z,81.3
2018-10-17T07:13:29.903Z,80.95
2018-10-17T07:14:29.789Z,81.66
2018-10-17T07:15:30.568Z,81.49
2018-10-17T07:16:29.785Z,81.49
2018-10-17T07:17:30.037Z,82.16
2018-10-17T07:18:29.842Z,82.27
2018-10-17T07:19:29.804Z,82.22
2018-10-17T07:20:29.956Z,82.13
2018-10-17T07:21:29.921Z,81.95
2018-10-17T07:22:30.110Z,81.86
2018-10-17T07:23:29.815Z,81.97
2018-10-17T07:24:29.829Z,82.07
2018-10-17T07:25:29.808Z,82.21
2018-10-17T07:26:29.848Z,82.05
2018-10-17T07:27:29.880Z,81.98
2018-10-17T07:28:30.114Z,81.64
2018-10-17T07:29:31.158Z,81.73
2018-10-17T07:30:29.975Z,81.51
2018-10-17T07:31:29.814Z,81.62
2018-10-17T07:32:30.142Z,81.5
2018-10-17T07:33:29.776Z,81.08
2018-10-17T07:34:30.051Z,81.16
2018-10-17T07:35:30.259Z,81.25
2018-10-17T07:36:29.776Z,81.15
2018-10-17T07:37:30.056Z,81.19
2018-10-17T07:38:30.162Z,81.72
2018-10-17T07:39:29.809Z,81.9
2018-10-17T07:40:29.856Z,81.82
2018-10-17T07:41:29.801Z,81.69
2018-10-17T07:42:29.806Z,81.61
2018-10-17T07:43:29.814Z,81.7
2018-10-17T07:44:29.923Z,81.37
2018-10-17T07:45:30.091Z,81.58
2018-10-17T07:46:30.018Z,81.8
2018-10-17T07:47:29.815Z,82.06
2018-10-17T07:48:29.743Z,81.9
2018-10-17T07:49:29.788Z,81.45
2018-10-17T07:50:29.810Z,81.93
2018-10-17T07:51:29.741Z,81.59
2018-10-17T07:52:29.824Z,81.46
2018-10-17T07:53:30.632Z,81.42
2018-10-17T07:54:29.749Z,81.3
2018-10-17T07:55:29.764Z,81.76
2018-10-17T07:56:29.768Z,81.79
2018-10-17T07:57:29.774Z,82.25
2018-10-17T07:58:29.777Z,82.24
2018-10-17T07:59:29.923Z,81.92
2018-10-17T08:00:30.660Z,81.99
2018-10-17T08:01:29.728Z,81.61
2018-10-17T08:02:29.788Z,81.26
2018-10-17T08:03:30.062Z,81.3
2018-10-17T08:04:29.779Z,81.43
2018-10-17T08:05:29.822Z,81.3
2018-10-17T08:06:30.101Z,81.19
2018-10-17T08:07:29.850Z,81.16
2018-10-17T08:08:30.140Z,80.88
2018-10-17T08:09:29.746Z,80.64
2018-10-17T08:10:29.766Z,80.81
2018-10-17T08:11:29.776Z,81.16
2018-10-17T08:12:29.808Z,80.75
2018-10-17T08:13:29.786Z,80.85
2018-10-17T08:14:29.810Z,80.77
2018-10-17T08:15:29.710Z,81.02
2018-10-17T08:16:30.103Z,81.04
2018-10-17T08:17:29.875Z,81.07
2018-10-17T08:18:29.746Z,81.04
2018-10-17T08:19:29.706Z,81.01
2018-10-17T08:20:29.748Z,80.85
2018-10-17T08:21:30.422Z,81.01
2018-10-17T08:22:29.809Z,80.94
2018-10-17T08:23:30.089Z,80.72
2018-10-17T08:24:29.698Z,80.57
2018-10-17T08:25:29.727Z,80.64
2018-10-17T08:26:29.713Z,80.4
2018-10-17T08:27:30.574Z,80.27
2018-10-17T08:28:29.923Z,80.48
2018-10-17T08:29:29.740Z,80.2
2018-10-17T08:30:29.813Z,79.87
2018-10-17T08:31:29.727Z,79.7
2018-10-17T08:32:29.725Z,79.59
2018-10-17T08:33:30.441Z,79.6
2018-10-17T08:34:30.049Z,79.58
2018-10-17T08:35:31.194Z,79.48
2018-10-17T08:36:31.482Z,79.35
2018-10-17T08:37:32.899Z,79.33
2018-10-17T08:38:29.695Z,79.19
2018-10-17T08:39:29.759Z,79.19
2018-10-17T08:40:29.698Z,79.11
2018-10-17T08:41:29.843Z,79.06
2018-10-17T08:42:30.185Z,79.02
2018-10-17T08:43:29.841Z,78.76
2018-10-17T08:44:30.029Z,78.61
2018-10-17T08:45:29.780Z,78.31
2018-10-17T08:47:29.738Z,78.01
2018-10-17T08:48:29.969Z,78.11
2018-10-17T08:49:29.749Z,78.02
2018-10-17T08:50:29.939Z,77.89
2018-10-17T08:51:29.767Z,77.62
2018-10-17T08:52:29.670Z,77.24
2018-10-17T08:53:29.801Z,77.29
2018-10-17T08:54:29.777Z,77.36
2018-10-17T08:55:29.675Z,76.9
2018-10-17T08:56:29.805Z,76.99
2018-10-17T08:57:29.828Z,76.39
2018-10-17T08:58:29.774Z,76.55
2018-10-17T08:59:29.754Z,76.6
2018-10-17T09:00:29.864Z,76.62
2018-10-17T09:01:29.687Z,76.51
2018-10-17T09:02:29.785Z,76.52
2018-10-17T09:03:29.696Z,75.8
2018-10-17T09:04:29.647Z,76.19
2018-10-17T09:05:30.501Z,76.07
2018-10-17T09:06:29.962Z,76.19
2018-10-17T09:07:29.675Z,75.55
2018-10-17T09:08:29.781Z,75.54
2018-10-17T09:09:29.662Z,75.37
2018-10-17T09:10:29.642Z,75.49
2018-10-17T09:11:29.699Z,75.67
2018-10-17T09:12:29.654Z,75.75
2018-10-17T09:13:29.906Z,75.63
2018-10-17T09:14:29.660Z,74.9
2018-10-17T09:15:29.702Z,74.99
2018-10-17T09:16:29.956Z,74.94
2018-10-17T09:17:29.656Z,74.56
2018-10-17T09:18:29.648Z,74.19
2018-10-17T09:19:30.617Z,73.69
2018-10-17T09:20:31.241Z,73.68
2018-10-17T09:21:31.036Z,72.96
2018-10-17T09:22:30.147Z,72.9
2018-10-17T09:23:29.684Z,72.74
2018-10-17T09:24:29.700Z,72.67
2018-10-17T09:25:29.859Z,72.56
2018-10-17T09:26:29.645Z,72.48
2018-10-17T09:27:29.836Z,72.46
2018-10-17T09:28:29.682Z,72.44
2018-10-17T09:29:29.672Z,72.26
2018-10-17T09:30:30.861Z,72.26
2018-10-17T09:31:29.738Z,71.56
2018-10-17T09:32:29.759Z,71.59
2018-10-17T09:33:29.656Z,71.79
2018-10-17T09:34:29.612Z,72.18
2018-10-17T09:35:29.776Z,72.02
2018-10-17T09:36:29.740Z,72.04
2018-10-17T09:37:29.604Z,71.79
2018-10-17T09:38:29.669Z,71.11
2018-10-17T09:39:29.813Z,71
2018-10-17T09:40:29.648Z,70.71
2018-10-17T09:41:29.955Z,70.77
2018-10-17T09:42:29.784Z,70.82
2018-10-17T09:43:29.666Z,70.39
2018-10-17T09:44:29.753Z,70.57
2018-10-17T09:45:29.660Z,70.48
2018-10-17T09:46:29.610Z,70.66
2018-10-17T09:47:29.657Z,70.22
2018-10-17T09:48:29.726Z,69.72
2018-10-17T09:49:29.703Z,69.56
2018-10-17T09:50:29.743Z,69.63
2018-10-17T09:51:29.963Z,69.58
2018-10-17T09:52:29.738Z,69.72
2018-10-17T09:53:30.385Z,68.93
2018-10-17T09:54:29.759Z,68.63
2018-10-17T09:55:29.707Z,68.28
2018-10-17T09:56:29.778Z,68.6
2018-10-17T09:57:29.674Z,68.99
2018-10-17T09:58:29.731Z,68.48
2018-10-17T09:59:29.994Z,68.03
2018-10-17T10:00:29.636Z,67.63
2018-10-17T10:01:29.754Z,67.75
2018-10-17T10:02:30.320Z,66.98
2018-10-17T10:03:29.654Z,66.62
2018-10-17T10:04:29.636Z,66.55
2018-10-17T10:05:29.653Z,66.55
2018-10-17T10:06:29.753Z,65.73
2018-10-17T10:07:29.698Z,64.95
2018-10-17T10:08:29.646Z,65.2
2018-10-17T10:09:29.593Z,64.46
2018-10-17T10:10:29.708Z,65.27
2018-10-17T10:11:29.696Z,65.4
2018-10-17T10:12:29.644Z,65.49
2018-10-17T10:13:29.709Z,64.61
2018-10-17T10:14:29.745Z,65.05
2018-10-17T10:15:29.709Z,64.06
2018-10-17T10:16:29.661Z,64.76
2018-10-17T10:17:29.927Z,64.82
2018-10-17T10:18:29.641Z,64.08
2018-10-17T10:19:29.637Z,64.25
2018-10-17T10:20:29.714Z,64.49
2018-10-17T10:21:29.567Z,63.99
2018-10-17T10:22:35.846Z,63.91
2018-10-17T10:23:29.801Z,64.11
2018-10-17T10:24:30.368Z,64.59
2018-10-17T10:25:29.582Z,64.04
2018-10-17T10:26:29.615Z,64.14
2018-10-17T10:27:29.643Z,62.36
2018-10-17T10:28:30.318Z,62.24
2018-10-17T10:29:29.673Z,62.21
2018-10-17T10:30:29.636Z,63.04
2018-10-17T10:31:29.630Z,63.47
2018-10-17T10:32:29.721Z,63.12
2018-10-17T10:33:29.577Z,62.68
2018-10-17T10:34:29.600Z,62.42
2018-10-17T10:35:29.963Z,62.27
2018-10-17T10:36:29.561Z,62.62
2018-10-17T10:37:29.645Z,62.99
2018-10-17T10:38:29.561Z,62.72
2018-10-17T10:39:29.797Z,62.51
2018-10-17T10:40:29.858Z,62.1
2018-10-17T10:41:29.597Z,62.24
2018-10-17T10:42:29.609Z,62.18
2018-10-17T10:43:29.576Z,61.59
2018-10-17T10:45:29.870Z,61.47
2018-10-17T10:46:29.829Z,61.19
2018-10-17T10:47:29.568Z,61.49
2018-10-17T10:48:29.557Z,61.58
2018-10-17T10:49:29.558Z,61.94
2018-10-17T10:50:29.564Z,61.92
2018-10-17T10:51:29.914Z,61.79
2018-10-17T10:52:29.572Z,61.51
2018-10-17T10:53:29.604Z,61.32
2018-10-17T10:54:29.947Z,60.99
2018-10-17T10:55:29.516Z,61.22
2018-10-17T10:56:29.577Z,61.12
2018-10-17T10:57:29.700Z,61.19
2018-10-17T10:58:30.656Z,61.59
2018-10-17T10:59:30.779Z,61.69
2018-10-17T11:00:29.535Z,61.67
2018-10-17T11:01:29.732Z,60.94
2018-10-17T11:02:29.640Z,61.13
2018-10-17T11:03:29.853Z,61.41
2018-10-17T11:04:29.819Z,61.7
2018-10-17T11:05:31.231Z,60.49
2018-10-17T11:06:29.564Z,60.3
2018-10-17T11:07:29.545Z,60.25
2018-10-17T11:08:29.547Z,60.01
2018-10-17T11:09:29.556Z,59.49
2018-10-17T11:10:29.531Z,59.81
2018-10-17T11:11:29.750Z,59.83
2018-10-17T11:12:29.707Z,60.15
2018-10-17T11:13:29.511Z,59.69
2018-10-17T11:14:30.585Z,60.04
2018-10-17T11:15:29.652Z,59.98
2018-10-17T11:16:29.561Z,60.56
2018-10-17T11:17:29.605Z,60.25
2018-10-17T11:18:29.828Z,60.51
2018-10-17T11:19:29.126Z,60.31
2018-10-17T11:20:29.698Z,60.14
2018-10-17T11:21:29.471Z,59.71
2018-10-17T11:22:29.694Z,59.11
2018-10-17T11:23:29.467Z,59.43
2018-10-17T11:24:29.504Z,60.07
2018-10-17T11:25:29.571Z,59.87
2018-10-17T11:26:29.468Z,59.52
2018-10-17T11:27:29.926Z,59.54
2018-10-17T11:28:29.498Z,59.43
2018-10-17T11:29:29.522Z,59.85
2018-10-17T11:30:29.636Z,59.43
2018-10-17T11:31:29.925Z,59.29
2018-10-17T11:32:29.459Z,59.87
2018-10-17T11:33:29.613Z,59.98
2018-10-17T11:34:29.481Z,58.39
2018-10-17T11:35:29.448Z,58.39
2018-10-17T11:36:29.452Z,58.43
2018-10-17T11:37:30.144Z,58.06
2018-10-17T11:38:29.622Z,57.91
2018-10-17T11:39:29.583Z,57.48
2018-10-17T11:40:29.913Z,58
2018-10-17T11:41:29.950Z,58.01
2018-10-17T11:42:29.552Z,57.5
2018-10-17T11:43:29.633Z,57.8
2018-10-17T11:44:29.435Z,57.88
2018-10-17T11:45:29.475Z,57.18
2018-10-17T11:46:29.446Z,57.09
2018-10-17T11:47:29.754Z,56.95
2018-10-17T11:48:29.570Z,56.49
2018-10-17T11:49:29.634Z,56.16
2018-10-17T11:50:29.629Z,55.98
2018-10-17T11:51:29.568Z,56.03
2018-10-17T11:52:29.549Z,55.84
2018-10-17T11:53:29.557Z,56.1
2018-10-17T11:54:29.508Z,56
2018-10-17T11:55:29.419Z,55.63
2018-10-17T11:56:29.684Z,56.31
2018-10-17T11:57:29.473Z,57.18
2018-10-17T11:58:29.464Z,57.12
2018-10-17T11:59:29.638Z,56.44
2018-10-17T12:00:29.432Z,55.7
2018-10-17T12:01:29.533Z,55.66
2018-10-17T12:02:29.434Z,54.44
2018-10-17T12:03:29.825Z,54.42
2018-10-17T12:04:30.932Z,54.26
2018-10-17T12:05:31.891Z,54.5
2018-10-17T12:06:30.314Z,55.61
2018-10-17T12:07:29.458Z,54.75
2018-10-17T12:08:29.528Z,55.5
2018-10-17T12:09:29.499Z,55.26
2018-10-17T12:10:29.422Z,54.69
2018-10-17T12:11:30.273Z,54.79
2018-10-17T12:12:29.658Z,54.98
2018-10-17T12:13:29.578Z,55.22
2018-10-17T12:14:29.418Z,54.77
2018-10-17T12:15:29.533Z,54.31
2018-10-17T12:16:29.494Z,54.76
2018-10-17T12:17:29.419Z,53.98
2018-10-17T12:18:29.496Z,54.03
2018-10-17T12:19:29.481Z,54.09
2018-10-17T12:20:29.439Z,53.97
2018-10-17T12:21:30.118Z,54.29
2018-10-17T12:22:29.458Z,53.86
2018-10-17T12:23:29.590Z,54.06
2018-10-17T12:24:29.434Z,54.33
2018-10-17T12:25:29.488Z,54.37
2018-10-17T12:26:29.377Z,54.53
2018-10-17T12:27:29.511Z,54.48
2018-10-17T12:28:30.190Z,53.6
2018-10-17T12:29:29.439Z,53.85
2018-10-17T12:30:29.846Z,53.8
2018-10-17T12:31:29.418Z,53.45
2018-10-17T12:32:29.509Z,53.3
2018-10-17T12:33:29.399Z,53.59
2018-10-17T12:34:29.491Z,53.16
2018-10-17T12:35:29.421Z,53.29
2018-10-17T12:36:29.419Z,53.37
2018-10-17T12:37:29.484Z,53.34
2018-10-17T12:38:29.813Z,53.01
2018-10-17T12:39:30.520Z,53.5
2018-10-17T12:40:30.340Z,53.36
2018-10-17T12:41:29.875Z,53.07
2018-10-17T12:42:29.428Z,53.21
2018-10-17T12:43:29.441Z,53.26
2018-10-17T12:44:29.525Z,53.12
2018-10-17T12:45:29.624Z,53.06
2018-10-17T12:46:29.752Z,53.02
2018-10-17T12:47:29.487Z,53.12
2018-10-17T12:48:29.414Z,52.77
2018-10-17T12:49:29.476Z,53.05
2018-10-17T12:50:29.438Z,52.78
2018-10-17T12:51:29.384Z,52.64
2018-10-17T12:52:30.116Z,53.3
2018-10-17T12:53:29.788Z,53.26
2018-10-17T12:54:29.493Z,53.21
2018-10-17T12:55:29.499Z,53.27
2018-10-17T12:56:29.738Z,52.95
2018-10-17T12:57:29.436Z,52.5
2018-10-17T12:58:29.635Z,52.61
2018-10-17T12:59:29.427Z,53
2018-10-17T13:00:29.421Z,52.82